Time;durP1;ratioP1;P1;durP2;ratioP2;P2;SDS_P1;SDS_P2;PMS_P1;PMS_P2;Temp;Humidity;BMP_temperature;BMP_pressure;BME280_temperature;BME280_humidity;BME280_pressure;Samples;Min_cycle;Max_cycle;Signal;HPM_P1;HPM_P2
2021/01/01 00:03:27;;;;;;;656.90;306.70;;;;;;;;;;12888565;23;20198;-58
2021/01/01 00:08:29;;;;;;;660.07;311.20;;;;;;;;;;12885046;23;20206;-58
2021/01/01 00:13:31;;;;;;;654.83;308.83;;;;;;;;;;12889108;23;20186;-57
2021/01/01 00:18:33;;;;;;;656.97;308.90;;;;;;;;;;12886616;23;20250;-57
2021/01/01 00:23:35;;;;;;;665.07;306.07;;;;;;;;;;12887755;23;20186;-58
2021/01/01 00:28:39;;;;;;;666.83;302.17;;;;;;;;;;12885810;23;20222;-56
2021/01/01 00:33:41;;;;;;;655.13;301.33;;;;;;;;;;12887537;23;20189;-57
2021/01/01 00:38:46;;;;;;;648.83;294.30;;;;;;;;;;12883254;23;20183;-57
2021/01/01 00:43:48;;;;;;;625.57;271.20;;;;;;;;;;12908563;23;20167;-55
2021/01/01 00:48:50;;;;;;;565.63;239.83;;;;;;;;;;12885609;23;20210;-55
2021/01/01 00:53:52;;;;;;;589.53;245.20;;;;;;;;;;12886822;23;20178;-56
2021/01/01 00:58:55;;;;;;;581.93;243.57;;;;;;;;;;12886063;23;20179;-56
2021/01/01 01:03:57;;;;;;;559.97;228.80;;;;;;;;;;12886782;23;20539;-54
2021/01/01 01:08:59;;;;;;;517.53;197.40;;;;;;;;;;12888835;22;20206;-55
2021/01/01 01:14:02;;;;;;;395.37;151.23;;;;;;;;;;12888692;23;20243;-57
2021/01/01 01:19:04;;;;;;;336.17;131.20;;;;;;;;;;12884786;23;20179;-56
2021/01/01 01:24:06;;;;;;;306.43;119.73;;;;;;;;;;12884264;23;20182;-54
2021/01/01 01:29:09;;;;;;;273.67;107.30;;;;;;;;;;12907748;23;20199;-55
2021/01/01 01:34:11;;;;;;;236.27;98.07;;;;;;;;;;12884682;23;20901;-56
2021/01/01 01:39:12;;;;;;;252.33;98.47;;;;;;;;;;12885524;23;20556;-56
2021/01/01 01:44:15;;;;;;;236.93;98.60;;;;;;;;;;12885240;23;20185;-57
2021/01/01 01:49:17;;;;;;;234.87;95.67;;;;;;;;;;12884109;23;20651;-55
2021/01/01 01:54:19;;;;;;;257.90;98.53;;;;;;;;;;12884585;23;20178;-57
2021/01/01 01:59:22;;;;;;;221.60;90.13;;;;;;;;;;12886867;23;20171;-56
2021/01/01 02:04:24;;;;;;;213.27;85.90;;;;;;;;;;12883906;23;20240;-56
2021/01/01 02:09:25;;;;;;;209.27;84.83;;;;;;;;;;12884799;23;20281;-55
2021/01/01 02:14:28;;;;;;;212.97;86.67;;;;;;;;;;12883199;23;20186;-56
2021/01/01 02:19:30;;;;;;;208.03;85.20;;;;;;;;;;12884656;23;20176;-56
2021/01/01 02:24:32;;;;;;;215.17;87.77;;;;;;;;;;12885031;23;20203;-55
2021/01/01 02:29:34;;;;;;;222.93;89.17;;;;;;;;;;12903893;23;20198;-55
2021/01/01 02:34:36;;;;;;;217.27;89.10;;;;;;;;;;12885525;23;20185;-56
2021/01/01 02:39:38;;;;;;;228.90;93.67;;;;;;;;;;12883135;23;20175;-56
2021/01/01 02:44:40;;;;;;;231.23;94.37;;;;;;;;;;12886084;23;20514;-57
2021/01/01 02:49:41;;;;;;;253.80;100.13;;;;;;;;;;12884169;23;20202;-56
2021/01/01 02:54:46;;;;;;;263.63;106.53;;;;;;;;;;12882933;23;20179;-57
2021/01/01 02:59:48;;;;;;;290.33;112.07;;;;;;;;;;12883253;23;20182;-57
2021/01/01 03:04:49;;;;;;;353.37;129.97;;;;;;;;;;12885278;23;20192;-57
2021/01/01 03:09:52;;;;;;;364.70;136.13;;;;;;;;;;12881164;23;20395;-56
2021/01/01 03:14:53;;;;;;;331.50;131.87;;;;;;;;;;12885262;23;20190;-56
2021/01/01 03:19:55;;;;;;;319.67;122.70;;;;;;;;;;12883359;22;20183;-57
2021/01/01 03:24:57;;;;;;;315.47;122.57;;;;;;;;;;12887560;23;20680;-56
2021/01/01 03:29:59;;;;;;;302.37;118.10;;;;;;;;;;12885570;23;20690;-56
2021/01/01 03:35:01;;;;;;;300.83;114.53;;;;;;;;;;12888411;23;20178;-57
2021/01/01 03:40:08;;;;;;;295.17;111.93;;;;;;;;;;12908981;23;20167;-57
2021/01/01 03:45:11;;;;;;;288.83;114.70;;;;;;;;;;12889499;23;20187;-56
2021/01/01 03:50:12;;;;;;;274.80;109.73;;;;;;;;;;12890099;23;20310;-57
2021/01/01 03:55:15;;;;;;;271.87;106.03;;;;;;;;;;12886582;23;20175;-57
2021/01/01 04:00:17;;;;;;;258.53;104.67;;;;;;;;;;12889015;23;20179;-57
2021/01/01 04:05:18;;;;;;;280.97;107.30;;;;;;;;;;12885135;23;20195;-57
2021/01/01 04:10:21;;;;;;;268.90;104.03;;;;;;;;;;12887578;23;20214;-56
2021/01/01 04:15:23;;;;;;;254.33;100.17;;;;;;;;;;12886601;23;20175;-56
2021/01/01 04:20:25;;;;;;;269.33;106.10;;;;;;;;;;12888259;23;20672;-55
2021/01/01 04:25:27;;;;;;;254.57;102.43;;;;;;;;;;12886379;23;20199;-56
2021/01/01 04:30:29;;;;;;;245.50;94.90;;;;;;;;;;12888271;23;20210;-56
2021/01/01 04:35:30;;;;;;;253.53;98.47;;;;;;;;;;12884336;23;20183;-55
2021/01/01 04:40:33;;;;;;;262.70;99.27;;;;;;;;;;12887352;23;20178;-55
2021/01/01 04:45:35;;;;;;;261.57;102.13;;;;;;;;;;12885974;23;20177;-56
2021/01/01 04:50:37;;;;;;;260.60;104.03;;;;;;;;;;12885759;23;20206;-55
2021/01/01 04:55:39;;;;;;;240.07;96.73;;;;;;;;;;12886140;23;20174;-64
2021/01/01 05:00:41;;;;;;;237.20;96.47;;;;;;;;;;12887576;23;20177;-56
2021/01/01 05:05:46;;;;;;;232.90;88.30;;;;;;;;;;12884192;23;20202;-55
2021/01/01 05:10:49;;;;;;;202.67;84.97;;;;;;;;;;12908671;23;20197;-55
2021/01/01 05:15:51;;;;;;;210.80;82.43;;;;;;;;;;12886149;23;20489;-56
2021/01/01 05:20:55;;;;;;;193.67;79.50;;;;;;;;;;12886072;23;20175;-55
2021/01/01 05:26:10;;;;;;;190.20;76.93;;;;;;;;;;12883603;23;20203;-56
2021/01/01 05:31:12;;;;;;;190.30;77.60;;;;;;;;;;12886538;23;20704;-68
2021/01/01 05:36:14;;;;;;;215.73;91.93;;;;;;;;;;12884052;23;20179;-63
2021/01/01 05:41:28;;;;;;;148.23;59.23;;;;;;;;;;12887568;23;20182;-53
2021/01/01 05:46:29;;;;;;;135.00;55.27;;;;;;;;;;12904688;23;20186;-55
2021/01/01 05:51:31;;;;;;;132.30;52.90;;;;;;;;;;12883291;23;20206;-57
2021/01/01 05:56:33;;;;;;;122.67;48.93;;;;;;;;;;12882634;23;20171;-55
2021/01/01 06:01:35;;;;;;;103.93;43.50;;;;;;;;;;12885451;23;20191;-56
2021/01/01 06:06:37;;;;;;;95.60;40.37;;;;;;;;;;12880554;23;20206;-55
2021/01/01 06:11:47;;;;;;;89.67;37.53;;;;;;;;;;12886386;22;20178;-55
2021/01/01 06:16:50;;;;;;;85.63;36.50;;;;;;;;;;12904029;23;20178;-56
2021/01/01 06:21:58;;;;;;;77.70;33.67;;;;;;;;;;12883753;23;20694;-56
2021/01/01 06:27:00;;;;;;;68.63;29.60;;;;;;;;;;12889092;23;20217;-55
2021/01/01 06:32:04;;;;;;;64.37;29.60;;;;;;;;;;12884780;23;20175;-56
2021/01/01 06:37:06;;;;;;;66.30;29.03;;;;;;;;;;12882993;23;20183;-55
2021/01/01 06:42:09;;;;;;;63.87;28.23;;;;;;;;;;12885436;23;20182;-55
2021/01/01 06:47:31;;;;;;;58.23;25.30;;;;;;;;;;12887970;23;20199;-56
2021/01/01 06:52:34;;;;;;;57.67;25.07;;;;;;;;;;12882185;23;20175;-56
2021/01/01 06:57:49;;;;;;;52.13;23.57;;;;;;;;;;12905654;23;20492;-55
2021/01/01 07:02:50;;;;;;;48.47;21.87;;;;;;;;;;12889855;23;20655;-54
2021/01/01 07:07:53;;;;;;;45.77;19.53;;;;;;;;;;12888016;23;20521;-57
2021/01/01 07:13:14;;;;;;;47.43;20.10;;;;;;;;;;12886689;23;20186;-55
2021/01/01 07:18:17;;;;;;;41.20;18.70;;;;;;;;;;12889212;23;20183;-56
2021/01/01 07:23:20;;;;;;;43.60;18.27;;;;;;;;;;12885418;23;20592;-55
2021/01/01 07:28:22;;;;;;;36.23;16.60;;;;;;;;;;12887207;23;20687;-54
2021/01/01 07:33:25;;;;;;;34.93;14.90;;;;;;;;;;12885427;23;20186;-56
2021/01/01 07:38:29;;;;;;;29.40;13.57;;;;;;;;;;12887159;23;20534;-55
2021/01/01 07:43:31;;;;;;;30.73;12.67;;;;;;;;;;12886423;23;20182;-56
2021/01/01 07:48:33;;;;;;;26.60;12.17;;;;;;;;;;12886510;23;20203;-56
2021/01/01 07:53:40;;;;;;;21.53;10.13;;;;;;;;;;12904964;23;20307;-56
2021/01/01 07:58:43;;;;;;;26.17;10.33;;;;;;;;;;12888456;23;20183;-55
2021/01/01 08:03:45;;;;;;;22.37;9.57;;;;;;;;;;12885895;23;20200;-56
2021/01/01 08:08:47;;;;;;;21.23;9.70;;;;;;;;;;12884995;23;20247;-54
2021/01/01 08:13:49;;;;;;;23.07;9.33;;;;;;;;;;12883890;23;20171;-57
2021/01/01 08:18:51;;;;;;;19.93;8.90;;;;;;;;;;12884903;23;20175;-56
2021/01/01 08:23:57;;;;;;;20.10;8.77;;;;;;;;;;12883879;23;20242;-55
2021/01/01 08:28:59;;;;;;;20.83;8.40;;;;;;;;;;12888393;23;20218;-55
2021/01/01 08:34:01;;;;;;;19.60;8.10;;;;;;;;;;12884571;23;20179;-54
2021/01/01 08:39:08;;;;;;;17.50;8.43;;;;;;;;;;12885925;23;20289;-55
2021/01/01 08:44:10;;;;;;;15.83;7.90;;;;;;;;;;12886011;23;20179;-54
2021/01/01 08:49:18;;;;;;;17.00;8.23;;;;;;;;;;12885970;23;20199;-54
2021/01/01 08:54:24;;;;;;;18.20;8.33;;;;;;;;;;12903594;23;20511;-56
2021/01/01 08:59:26;;;;;;;26.10;9.77;;;;;;;;;;12883973;23;20175;-55
2021/01/01 09:04:29;;;;;;;18.47;8.50;;;;;;;;;;12882986;23;20210;-55
2021/01/01 09:09:32;;;;;;;18.50;7.87;;;;;;;;;;12885354;23;20273;-55
2021/01/01 09:14:41;;;;;;;20.57;8.10;;;;;;;;;;12884452;23;20175;-55
2021/01/01 09:19:43;;;;;;;19.10;7.83;;;;;;;;;;12904467;23;20167;-55
2021/01/01 09:24:46;;;;;;;17.13;7.40;;;;;;;;;;12881379;23;20217;-57
2021/01/01 09:29:48;;;;;;;13.27;7.17;;;;;;;;;;12905606;23;20202;-57
2021/01/01 09:34:51;;;;;;;16.03;7.93;;;;;;;;;;12883512;23;20183;-57
2021/01/01 09:39:53;;;;;;;16.10;7.33;;;;;;;;;;12883255;23;20206;-56
2021/01/01 09:44:55;;;;;;;15.97;7.83;;;;;;;;;;12882309;23;20185;-55
2021/01/01 09:49:57;;;;;;;16.57;8.30;;;;;;;;;;12882710;23;20210;-55
2021/01/01 09:54:59;;;;;;;14.97;7.70;;;;;;;;;;12879725;23;20182;-55
2021/01/01 10:00:01;;;;;;;16.23;7.67;;;;;;;;;;12881444;23;20645;-55
2021/01/01 10:05:07;;;;;;;18.47;7.90;;;;;;;;;;12886466;23;20260;-56
2021/01/01 10:10:11;;;;;;;18.33;8.17;;;;;;;;;;12884729;23;20285;-56
2021/01/01 10:15:13;;;;;;;16.70;7.67;;;;;;;;;;12884240;23;20576;-56
2021/01/01 10:20:14;;;;;;;15.30;7.20;;;;;;;;;;12880695;23;20187;-56
2021/01/01 10:25:17;;;;;;;17.70;8.43;;;;;;;;;;12883135;23;20209;-52
2021/01/01 10:30:19;;;;;;;14.40;7.60;;;;;;;;;;12879858;23;20215;-57
2021/01/01 10:35:21;;;;;;;13.23;7.23;;;;;;;;;;12885203;23;20182;-53
2021/01/01 10:40:23;;;;;;;13.83;7.23;;;;;;;;;;12886258;23;20186;-58
2021/01/01 10:45:25;;;;;;;13.90;7.43;;;;;;;;;;12886190;23;20575;-56
2021/01/01 10:50:27;;;;;;;16.97;7.23;;;;;;;;;;12884038;23;20213;-59
2021/01/01 10:55:31;;;;;;;16.80;7.73;;;;;;;;;;12887145;23;20383;-54
2021/01/01 11:00:33;;;;;;;17.17;8.00;;;;;;;;;;12887514;23;20175;-57
2021/01/01 11:05:35;;;;;;;18.63;8.00;;;;;;;;;;12885607;23;20568;-56
2021/01/01 11:10:37;;;;;;;19.13;7.27;;;;;;;;;;12885572;23;20264;-58
2021/01/01 12:20:15;;;;;;;21.00;9.80;;;;;;;;;;12907818;23;20171;-57
2021/01/01 12:25:17;;;;;;;20.00;9.37;;;;;;;;;;12904052;23;20203;-54
2021/01/01 12:30:20;;;;;;;20.83;9.90;;;;;;;;;;12886498;23;20234;-56
2021/01/01 12:35:22;;;;;;;25.10;10.07;;;;;;;;;;12883447;23;20186;-60
2021/01/01 12:40:24;;;;;;;24.77;10.63;;;;;;;;;;12886509;23;20179;-56
2021/01/01 12:45:27;;;;;;;24.90;10.50;;;;;;;;;;12885222;23;20179;-55
2021/01/01 12:50:28;;;;;;;22.80;10.53;;;;;;;;;;12884284;23;20212;-56
2021/01/01 12:55:31;;;;;;;29.50;10.00;;;;;;;;;;12883191;23;20175;-55
2021/01/01 13:00:34;;;;;;;25.13;9.53;;;;;;;;;;12886248;23;20211;-56
2021/01/01 13:05:36;;;;;;;23.83;9.40;;;;;;;;;;12884232;23;20203;-56
2021/01/01 13:10:37;;;;;;;24.67;9.80;;;;;;;;;;12885347;23;20206;-55
2021/01/01 13:15:40;;;;;;;16.50;8.43;;;;;;;;;;12885285;23;20178;-54
2021/01/01 13:20:41;;;;;;;26.83;9.07;;;;;;;;;;12875331;23;20175;-55
2021/01/01 13:25:43;;;;;;;19.97;8.90;;;;;;;;;;12876439;23;20755;-55
2021/01/01 13:30:46;;;;;;;21.33;9.37;;;;;;;;;;12880233;23;20253;-51
2021/01/01 13:35:51;;;;;;;24.90;9.47;;;;;;;;;;12876828;23;20186;-54
2021/01/01 13:40:53;;;;;;;22.00;9.40;;;;;;;;;;12899166;23;20171;-56
2021/01/01 13:45:56;;;;;;;21.30;8.20;;;;;;;;;;12875709;23;20183;-56
2021/01/01 13:50:58;;;;;;;15.73;7.57;;;;;;;;;;12877293;23;20206;-61
2021/01/01 13:56:01;;;;;;;15.43;6.90;;;;;;;;;;12875281;23;20426;-56
2021/01/01 14:01:03;;;;;;;12.77;5.60;;;;;;;;;;12879396;23;20708;-57
2021/01/01 14:06:05;;;;;;;8.33;4.43;;;;;;;;;;12876407;23;20199;-54
2021/01/01 14:11:07;;;;;;;11.87;3.60;;;;;;;;;;12877184;23;20699;-55
2021/01/01 14:16:10;;;;;;;8.00;3.80;;;;;;;;;;12876245;23;20652;-57
2021/01/01 14:21:12;;;;;;;6.43;3.50;;;;;;;;;;12877401;23;20179;-56
2021/01/01 14:26:14;;;;;;;7.57;3.60;;;;;;;;;;12876729;23;20210;-55
2021/01/01 14:31:17;;;;;;;5.43;2.90;;;;;;;;;;12881740;23;20214;-57
2021/01/01 14:36:19;;;;;;;6.13;3.37;;;;;;;;;;12876516;23;20985;-55
2021/01/01 14:41:21;;;;;;;8.70;4.13;;;;;;;;;;12873293;22;20183;-55
2021/01/01 14:46:24;;;;;;;7.97;4.03;;;;;;;;;;12877675;23;20197;-57
2021/01/01 14:51:25;;;;;;;8.90;3.97;;;;;;;;;;12875990;23;20210;-56
2021/01/01 14:56:33;;;;;;;6.70;3.87;;;;;;;;;;12881213;23;20202;-56
2021/01/01 15:01:37;;;;;;;7.57;3.90;;;;;;;;;;12896339;23;20195;-56
2021/01/01 15:06:38;;;;;;;9.43;4.40;;;;;;;;;;12877786;23;20179;-55
2021/01/01 15:11:40;;;;;;;13.77;4.47;;;;;;;;;;12877294;23;20210;-56
2021/01/01 15:16:42;;;;;;;11.57;5.13;;;;;;;;;;12877868;23;20181;-57
2021/01/01 15:21:45;;;;;;;9.33;4.80;;;;;;;;;;12877767;23;20183;-55
2021/01/01 15:26:46;;;;;;;14.23;5.57;;;;;;;;;;12880821;23;20238;-57
2021/01/01 15:31:49;;;;;;;10.83;5.27;;;;;;;;;;12881505;23;20213;-55
2021/01/01 15:36:50;;;;;;;12.50;5.87;;;;;;;;;;12880809;23;20175;-56
2021/01/01 15:41:52;;;;;;;14.30;5.83;;;;;;;;;;12880300;23;20205;-56
2021/01/01 15:46:55;;;;;;;15.60;6.07;;;;;;;;;;12880082;23;20514;-55
2021/01/01 15:51:59;;;;;;;13.50;5.83;;;;;;;;;;12876563;23;20592;-53
2021/01/01 15:57:01;;;;;;;15.27;6.20;;;;;;;;;;12882135;23;20183;-55
2021/01/01 16:02:04;;;;;;;15.33;5.87;;;;;;;;;;12875396;23;20201;-57
2021/01/01 16:07:06;;;;;;;15.63;6.20;;;;;;;;;;12879070;23;20448;-55
2021/01/01 16:12:08;;;;;;;14.90;6.43;;;;;;;;;;12877731;23;20528;-56
2021/01/01 16:17:10;;;;;;;12.73;6.40;;;;;;;;;;12879349;23;20756;-55
2021/01/01 16:22:13;;;;;;;12.73;6.13;;;;;;;;;;12874596;23;20182;-54
2021/01/01 16:27:15;;;;;;;14.07;6.50;;;;;;;;;;12879065;23;20210;-56
2021/01/01 16:32:17;;;;;;;12.37;5.63;;;;;;;;;;12879955;23;20215;-55
2021/01/01 16:37:19;;;;;;;10.73;5.30;;;;;;;;;;12877051;23;20179;-54
2021/01/01 16:42:22;;;;;;;11.97;5.10;;;;;;;;;;12880569;23;20177;-56
2021/01/01 16:47:24;;;;;;;11.67;5.80;;;;;;;;;;12880369;23;20190;-55
2021/01/01 16:52:26;;;;;;;12.60;6.27;;;;;;;;;;12880378;23;20218;-56
2021/01/01 16:57:28;;;;;;;14.57;6.47;;;;;;;;;;12878321;23;20649;-56
2021/01/01 17:02:30;;;;;;;13.93;7.13;;;;;;;;;;12878328;23;20539;-56
2021/01/01 17:07:33;;;;;;;14.23;6.63;;;;;;;;;;12875721;23;20183;-57
2021/01/01 17:12:35;;;;;;;12.90;6.67;;;;;;;;;;12880857;23;20202;-56
2021/01/01 17:17:38;;;;;;;14.17;6.77;;;;;;;;;;12878788;23;20179;-55
2021/01/01 17:22:40;;;;;;;13.70;6.70;;;;;;;;;;12878546;23;20183;-57
2021/01/01 17:27:42;;;;;;;13.77;6.50;;;;;;;;;;12877377;23;20210;-55
2021/01/01 17:32:44;;;;;;;14.60;6.70;;;;;;;;;;12874402;23;20210;-55
2021/01/01 17:37:46;;;;;;;17.20;6.70;;;;;;;;;;12876615;23;20179;-57
2021/01/01 17:42:48;;;;;;;14.03;6.87;;;;;;;;;;12884122;23;20229;-56
2021/01/01 17:47:57;;;;;;;12.77;6.83;;;;;;;;;;12873771;23;20182;-58
2021/01/01 17:52:59;;;;;;;20.83;7.27;;;;;;;;;;12899285;23;20411;-57
2021/01/01 17:58:00;;;;;;;16.93;8.03;;;;;;;;;;12878534;23;20175;-55
2021/01/01 18:03:04;;;;;;;16.30;7.47;;;;;;;;;;12878168;23;20249;-55
2021/01/01 18:08:05;;;;;;;12.97;6.67;;;;;;;;;;12875479;23;20827;-55
2021/01/01 18:13:08;;;;;;;20.97;9.13;;;;;;;;;;12875632;23;20179;-53
2021/01/01 18:18:11;;;;;;;16.60;8.40;;;;;;;;;;12880349;23;20182;-56
2021/01/01 18:23:25;;;;;;;19.87;8.00;;;;;;;;;;12876751;23;20186;-55
2021/01/01 18:28:26;;;;;;;20.67;8.27;;;;;;;;;;12885744;23;20214;-56
2021/01/01 18:33:30;;;;;;;20.63;9.23;;;;;;;;;;12875442;22;20175;-56
2021/01/01 18:38:35;;;;;;;20.80;8.87;;;;;;;;;;12877088;23;20190;-54
2021/01/01 18:43:48;;;;;;;19.70;8.93;;;;;;;;;;12898035;23;20179;-53
2021/01/01 18:48:56;;;;;;;21.70;8.70;;;;;;;;;;12877374;23;20587;-57
2021/01/01 18:54:03;;;;;;;21.53;10.10;;;;;;;;;;12899040;23;20266;-56
2021/01/01 18:59:05;;;;;;;21.47;9.27;;;;;;;;;;12881685;23;20667;-53
2021/01/01 19:04:20;;;;;;;21.80;9.83;;;;;;;;;;12879270;23;20203;-55
2021/01/01 19:09:24;;;;;;;26.43;10.40;;;;;;;;;;12901304;23;20524;-55
2021/01/01 19:14:25;;;;;;;27.07;11.50;;;;;;;;;;12881666;23;20175;-56
2021/01/01 19:19:31;;;;;;;26.60;10.80;;;;;;;;;;12883385;23;20175;-54
2021/01/01 19:24:35;;;;;;;29.80;11.20;;;;;;;;;;12901256;23;20168;-55
2021/01/01 19:29:39;;;;;;;25.53;10.70;;;;;;;;;;12883153;23;20250;-53
2021/01/01 19:34:55;;;;;;;27.20;11.10;;;;;;;;;;12901174;23;20179;-51
2021/01/01 19:40:21;;;;;;;29.77;12.07;;;;;;;;;;12879748;23;20353;-57
2021/01/01 19:45:25;;;;;;;30.63;12.20;;;;;;;;;;12902037;23;20167;-55
2021/01/01 19:50:32;;;;;;;24.63;11.27;;;;;;;;;;12880270;23;20668;-55
2021/01/01 19:55:43;;;;;;;25.27;11.67;;;;;;;;;;12898667;23;20210;-55
2021/01/01 20:00:46;;;;;;;25.13;11.33;;;;;;;;;;12902302;23;20167;-55
2021/01/01 20:05:50;;;;;;;23.30;11.83;;;;;;;;;;12879293;23;20195;-56
2021/01/01 20:10:54;;;;;;;30.10;12.17;;;;;;;;;;12880648;23;20680;-56
2021/01/01 20:15:58;;;;;;;24.47;10.80;;;;;;;;;;12879783;23;20387;-56
2021/01/01 20:21:00;;;;;;;27.57;12.10;;;;;;;;;;12881241;23;20250;-56
2021/01/01 20:26:04;;;;;;;36.87;12.57;;;;;;;;;;12875020;23;20225;-55
2021/01/01 20:31:07;;;;;;;24.37;11.10;;;;;;;;;;12879798;23;20745;-56
2021/01/01 20:36:09;;;;;;;34.43;15.50;;;;;;;;;;12875422;23;20182;-55
2021/01/01 20:41:32;;;;;;;35.37;15.03;;;;;;;;;;12881894;23;20637;-56
2021/01/01 20:57:32;;;;;;;29.17;12.93;;;;;;;;;;12897737;23;20171;-54
2021/01/01 21:02:38;;;;;;;31.27;12.17;;;;;;;;;;12895476;23;20195;-59
2021/01/01 21:07:56;;;;;;;31.67;12.80;;;;;;;;;;12898811;23;20645;-53
2021/01/01 21:13:06;;;;;;;34.07;13.07;;;;;;;;;;12901390;23;20207;-54
2021/01/01 21:18:29;;;;;;;30.33;13.20;;;;;;;;;;12899562;23;20174;-56
2021/01/01 21:23:51;;;;;;;30.80;14.20;;;;;;;;;;12900286;23;20178;-56
2021/01/01 21:29:06;;;;;;;30.60;13.83;;;;;;;;;;12883165;23;20249;-55
2021/01/01 21:34:23;;;;;;;32.67;13.57;;;;;;;;;;12898128;23;20723;-53
2021/01/01 21:39:40;;;;;;;32.53;14.40;;;;;;;;;;12812216;22;20181;-54
2021/01/01 21:45:00;;;;;;;30.37;13.83;;;;;;;;;;12901390;23;20167;-55
2021/01/01 21:50:03;;;;;;;32.40;14.17;;;;;;;;;;12872055;23;20213;-57
2021/01/01 21:55:05;;;;;;;35.00;14.17;;;;;;;;;;12874474;23;20691;-56
2021/01/01 22:00:07;;;;;;;32.87;14.53;;;;;;;;;;12880969;22;20179;-53
2021/01/01 22:05:10;;;;;;;33.40;13.67;;;;;;;;;;12877792;23;20225;-56
2021/01/01 22:10:12;;;;;;;32.93;13.70;;;;;;;;;;12877135;23;20214;-57
2021/01/01 22:15:14;;;;;;;35.30;14.17;;;;;;;;;;12876488;23;20175;-52
2021/01/01 22:20:17;;;;;;;36.30;14.57;;;;;;;;;;12878345;23;20182;-57
2021/01/01 22:25:19;;;;;;;36.57;14.83;;;;;;;;;;12878467;23;20186;-55
2021/01/01 22:30:21;;;;;;;36.43;13.60;;;;;;;;;;12876863;23;20215;-55
2021/01/01 22:35:23;;;;;;;35.70;14.23;;;;;;;;;;12876786;23;20175;-56
2021/01/01 22:40:25;;;;;;;32.70;14.87;;;;;;;;;;12880140;23;20174;-55
2021/01/01 22:45:27;;;;;;;35.60;14.80;;;;;;;;;;12875356;23;20633;-55
2021/01/01 22:50:29;;;;;;;36.70;14.27;;;;;;;;;;12874912;23;20202;-56
2021/01/01 22:55:31;;;;;;;30.60;14.63;;;;;;;;;;12876397;23;20243;-57
2021/01/01 23:00:33;;;;;;;34.57;14.33;;;;;;;;;;12877880;23;20635;-56
2021/01/01 23:05:37;;;;;;;32.53;12.97;;;;;;;;;;12879841;23;20195;-56
2021/01/01 23:10:38;;;;;;;28.70;12.80;;;;;;;;;;12881078;23;20203;-56
2021/01/01 23:15:42;;;;;;;29.47;13.50;;;;;;;;;;12879430;23;20182;-56
2021/01/01 23:20:45;;;;;;;30.90;12.10;;;;;;;;;;12875148;23;20788;-54
2021/01/01 23:25:54;;;;;;;28.40;12.30;;;;;;;;;;12876696;23;20229;-55
2021/01/01 23:31:05;;;;;;;29.33;12.60;;;;;;;;;;12875833;23;20195;-57
2021/01/01 23:36:14;;;;;;;31.37;12.33;;;;;;;;;;12875800;22;20187;-56
2021/01/01 23:41:18;;;;;;;28.60;11.23;;;;;;;;;;12877155;23;20625;-54
2021/01/01 23:46:20;;;;;;;30.43;11.83;;;;;;;;;;12878182;23;20649;-56
2021/01/01 23:51:23;;;;;;;28.30;12.30;;;;;;;;;;12878553;23;20209;-55
2021/01/01 23:56:26;;;;;;;35.50;13.37;;;;;;;;;;12880450;23;20179;-56
